Observation data for Dimmitt on 09/11/2017      Previous  Date  Next       Current Mesonet Observations  Soil Data  Daily Summary Page  Observations in Plain Language
KDMS 110500Z 14006KT 15/10 A3026 RMK A01 T01520096  RH  070%=      5-min Rain = 0
KDMS 110505Z 14006KT 15/10 A3026 RMK A01 T01520096  RH  071%=      5-min Rain = 0
KDMS 110510Z 15006KT 15/10 A3027 RMK A01 T01510096  RH  071%=      5-min Rain = 0
KDMS 110515Z 15006KT 15/10 A3026 RMK A01 T01500095  RH  071%=      5-min Rain = 0
KDMS 110520Z 14006KT 15/10 A3027 RMK A01 T01480095  RH  072%=      5-min Rain = 0
KDMS 110525Z 14006KT 15/10 A3027 RMK A01 T01470095  RH  072%=      5-min Rain = 0
KDMS 110530Z 14006KT 15/09 A3027 RMK A01 T01460094  RH  072%=      5-min Rain = 0
KDMS 110535Z 14006KT 14/09 A3027 RMK A01 T01440094  RH  073%=      5-min Rain = 0
KDMS 110540Z 13006KT 14/09 A3027 RMK A01 T01410093  RH  074%=      5-min Rain = 0
KDMS 110545Z 14006KT 14/09 A3027 RMK A01 T01400094  RH  075%=      5-min Rain = 0
KDMS 110550Z 14006KT 14/09 A3027 RMK A01 T01380093  RH  076%=      5-min Rain = 0
KDMS 110555Z 14005KT 14/09 A3027 RMK A01 T01360094  RH  077%=      5-min Rain = 0
KDMS 110600Z 14005KT 14/09 A3026 RMK A01 T01350094  RH  078%=      5-min Rain = 0
KDMS 110605Z 14005KT 13/09 A3026 RMK A01 T01340094  RH  078%=      5-min Rain = 0
KDMS 110610Z 14005KT 13/09 A3026 RMK A01 T01340093  RH  078%=      5-min Rain = 0
KDMS 110615Z 14006KT 13/09 A3026 RMK A01 T01340093  RH  078%=      5-min Rain = 0
KDMS 110620Z 14006KT 13/09 A3026 RMK A01 T01330093  RH  078%=      5-min Rain = 0
KDMS 110625Z 14006KT 13/09 A3026 RMK A01 T01310093  RH  079%=      5-min Rain = 0
KDMS 110630Z 15006KT 13/09 A3026 RMK A01 T01300093  RH  079%=      5-min Rain = 0
KDMS 110635Z 15006KT 13/09 A3026 RMK A01 T01280093  RH  080%=      5-min Rain = 0
KDMS 110640Z 15006KT 13/09 A3026 RMK A01 T01270093  RH  081%=      5-min Rain = 0
KDMS 110645Z 15006KT 13/09 A3026 RMK A01 T01270094  RH  082%=      5-min Rain = 0
KDMS 110650Z 15007KT 13/09 A3026 RMK A01 T01260094  RH  082%=      5-min Rain = 0
KDMS 110655Z 14006KT 13/09 A3026 RMK A01 T01270094  RH  082%=      5-min Rain = 0
KDMS 110700Z 14006KT 13/09 A3026 RMK A01 T01270094  RH  082%=      5-min Rain = 0
KDMS 110705Z 15006KT 13/09 A3026 RMK A01 T01260094  RH  082%=      5-min Rain = 0
KDMS 110710Z 15006KT 13/09 A3026 RMK A01 T01250093  RH  082%=      5-min Rain = 0
KDMS 110715Z 15006KT 13/09 A3026 RMK A01 T01250093  RH  082%=      5-min Rain = 0
KDMS 110720Z 14006KT 13/09 A3026 RMK A01 T01250093  RH  082%=      5-min Rain = 0
KDMS 110725Z 14006KT 13/09 A3026 RMK A01 T01250094  RH  082%=      5-min Rain = 0
KDMS 110730Z 15006KT 13/09 A3026 RMK A01 T01250093  RH  082%=      5-min Rain = 0
KDMS 110735Z 15007KT 12/09 A3026 RMK A01 T01230092  RH  083%=      5-min Rain = 0
KDMS 110740Z 15006KT 12/09 A3026 RMK A01 T01220092  RH  083%=      5-min Rain = 0
KDMS 110745Z 16007KT 12/09 A3026 RMK A01 T01220093  RH  084%=      5-min Rain = 0
KDMS 110750Z 16007KT 12/09 A3025 RMK A01 T01220093  RH  084%=      5-min Rain = 0
KDMS 110755Z 16007KT 12/09 A3025 RMK A01 T01220093  RH  084%=      5-min Rain = 0
KDMS 110800Z 16006KT 12/09 A3025 RMK A01 T01210093  RH  084%=      5-min Rain = 0
KDMS 110805Z 16007KT 12/09 A3025 RMK A01 T01210092  RH  084%=      5-min Rain = 0
KDMS 110810Z 16007KT 12/09 A3025 RMK A01 T01210093  RH  084%=      5-min Rain = 0
KDMS 110815Z 16007KT 12/09 A3025 RMK A01 T01220093  RH  084%=      5-min Rain = 0
KDMS 110820Z 17007KT 12/09 A3025 RMK A01 T01230093  RH  083%=      5-min Rain = 0
KDMS 110825Z 17007KT 13/09 A3025 RMK A01 T01250093  RH  082%=      5-min Rain = 0
KDMS 110830Z 18007KT 13/09 A3025 RMK A01 T01260093  RH  082%=      5-min Rain = 0
KDMS 110835Z 18007KT 13/09 A3025 RMK A01 T01260093  RH  082%=      5-min Rain = 0
KDMS 110840Z 18006KT 13/09 A3025 RMK A01 T01250093  RH  082%=      5-min Rain = 0
KDMS 110845Z 18006KT 12/09 A3025 RMK A01 T01240092  RH  082%=      5-min Rain = 0
KDMS 110850Z 18006KT 12/09 A3025 RMK A01 T01230092  RH  083%=      5-min Rain = 0
KDMS 110855Z 18006KT 12/09 A3025 RMK A01 T01230092  RH  083%=      5-min Rain = 0
KDMS 110900Z 18006KT 12/09 A3025 RMK A01 T01220091  RH  082%=      5-min Rain = 0
KDMS 110905Z 18006KT 12/09 A3025 RMK A01 T01210090  RH  083%=      5-min Rain = 0
KDMS 110910Z 18006KT 12/09 A3025 RMK A01 T01200090  RH  083%=      5-min Rain = 0
KDMS 110915Z 18006KT 12/09 A3025 RMK A01 T01180089  RH  084%=      5-min Rain = 0
KDMS 110920Z 18006KT 12/09 A3025 RMK A01 T01180090  RH  084%=      5-min Rain = 0
KDMS 110925Z 18005KT 12/09 A3025 RMK A01 T01200090  RH  083%=      5-min Rain = 0
KDMS 110930Z 18006KT 12/09 A3025 RMK A01 T01210090  RH  083%=      5-min Rain = 0
KDMS 110935Z 18007KT 12/09 A3025 RMK A01 T01220090  RH  082%=      5-min Rain = 0
KDMS 110940Z 18008KT 12/09 A3025 RMK A01 T01220090  RH  082%=      5-min Rain = 0
KDMS 110945Z 18008KT 12/09 A3025 RMK A01 T01230091  RH  082%=      5-min Rain = 0
KDMS 110950Z 19008KT 12/09 A3025 RMK A01 T01240091  RH  082%=      5-min Rain = 0
KDMS 110955Z 18008KT 13/09 A3025 RMK A01 T01250091  RH  081%=      5-min Rain = 0
KDMS 111000Z 19008KT 13/09 A3025 RMK A01 T01260091  RH  081%=      5-min Rain = 0
KDMS 111005Z 19008KT 13/09 A3025 RMK A01 T01270091  RH  080%=      5-min Rain = 0
KDMS 111010Z 19007KT 13/09 A3025 RMK A01 T01280090  RH  079%=      5-min Rain = 0
KDMS 111015Z 19007KT 13/09 A3025 RMK A01 T01290091  RH  079%=      5-min Rain = 0
KDMS 111020Z 19007KT 13/09 A3025 RMK A01 T01310093  RH  079%=      5-min Rain = 0
KDMS 111025Z 20007KT 13/09 A3025 RMK A01 T01340094  RH  078%=      5-min Rain = 0
KDMS 111030Z 21006KT 13/09 A3025 RMK A01 T01330094  RH  078%=      5-min Rain = 0
KDMS 111035Z 21007KT 13/09 A3025 RMK A01 T01340094  RH  078%=      5-min Rain = 0
KDMS 111040Z 21007KT 13/09 A3025 RMK A01 T01340093  RH  078%=      5-min Rain = 0
KDMS 111045Z 21007KT 14/09 A3025 RMK A01 T01350093  RH  077%=      5-min Rain = 0
KDMS 111050Z 21007KT 14/09 A3025 RMK A01 T01350093  RH  077%=      5-min Rain = 0
KDMS 111055Z 20006KT 13/09 A3025 RMK A01 T01340093  RH  078%=      5-min Rain = 0
KDMS 111100Z 21006KT 13/09 A3025 RMK A01 T01340093  RH  077%=      5-min Rain = 0
KDMS 111105Z 21007KT 13/09 A3025 RMK A01 T01340094  RH  078%=      5-min Rain = 0
KDMS 111110Z 21007KT 13/09 A3025 RMK A01 T01340094  RH  078%=      5-min Rain = 0
KDMS 111115Z 21007KT 13/09 A3025 RMK A01 T01340094  RH  078%=      5-min Rain = 0
KDMS 111120Z 21007KT 14/09 A3025 RMK A01 T01350094  RH  078%=      5-min Rain = 0
KDMS 111125Z 21007KT 14/09 A3025 RMK A01 T01360094  RH  077%=      5-min Rain = 0
KDMS 111130Z 21007KT 14/09 A3025 RMK A01 T01380094  RH  076%=      5-min Rain = 0
KDMS 111135Z 21007KT 14/09 A3025 RMK A01 T01370094  RH  076%=      5-min Rain = 0
KDMS 111140Z 21007KT 14/09 A3025 RMK A01 T01370092  RH  076%=      5-min Rain = 0
KDMS 111145Z 21007KT 14/09 A3025 RMK A01 T01390092  RH  074%=      5-min Rain = 0
KDMS 111150Z 21008KT 14/09 A3025 RMK A01 T01390091  RH  074%=      5-min Rain = 0
KDMS 111155Z 21008KT 14/09 A3025 RMK A01 T01390091  RH  074%=      5-min Rain = 0
KDMS 111200Z 21008KT 14/09 A3025 RMK A01 T01400091  RH  073%=      5-min Rain = 0
KDMS 111205Z 21008KT 14/09 A3025 RMK A01 T01400091  RH  073%=      5-min Rain = 0
KDMS 111210Z 21007KT 14/09 A3025 RMK A01 T01400091  RH  073%=      5-min Rain = 0
KDMS 111215Z 21007KT 14/09 A3025 RMK A01 T01390091  RH  074%=      5-min Rain = 0
KDMS 111220Z 21007KT 14/09 A3025 RMK A01 T01390090  RH  074%=      5-min Rain = 0
KDMS 111225Z 22007KT 14/09 A3025 RMK A01 T01380091  RH  074%=      5-min Rain = 0
KDMS 111230Z 22005KT 14/09 A3025 RMK A01 T01350093  RH  077%=      5-min Rain = 0
KDMS 111235Z 22005KT 13/09 A3025 RMK A01 T01320092  RH  078%=      5-min Rain = 0
KDMS 111240Z 22005KT 13/09 A3026 RMK A01 T01290092  RH  079%=      5-min Rain = 0
KDMS 111245Z 22005KT 13/09 A3026 RMK A01 T01290092  RH  080%=      5-min Rain = 0
KDMS 111250Z 21005KT 13/09 A3026 RMK A01 T01300093  RH  080%=      5-min Rain = 0
KDMS 111255Z 22005KT 13/10 A3026 RMK A01 T01330095  RH  079%=      5-min Rain = 0
KDMS 111300Z 22005KT 14/10 A3026 RMK A01 T01360096  RH  078%=      5-min Rain = 0
KDMS 111305Z 22005KT 14/10 A3026 RMK A01 T01390096  RH  077%=      5-min Rain = 0
KDMS 111310Z 22005KT 14/10 A3026 RMK A01 T01420097  RH  076%=      5-min Rain = 0
KDMS 111315Z 22005KT 15/10 A3026 RMK A01 T01460098  RH  074%=      5-min Rain = 0
KDMS 111320Z 22006KT 15/10 A3026 RMK A01 T01490098  RH  073%=      5-min Rain = 0
KDMS 111325Z 22006KT 15/10 A3026 RMK A01 T01510099  RH  072%=      5-min Rain = 0
KDMS 111330Z 22006KT 15/10 A3026 RMK A01 T01540100  RH  072%=      5-min Rain = 0
KDMS 111335Z 23006KT 16/10 A3026 RMK A01 T01560101  RH  071%=      5-min Rain = 0
KDMS 111340Z 22007KT 16/10 A3026 RMK A01 T01580101  RH  070%=      5-min Rain = 0
KDMS 111345Z 22007KT 16/10 A3026 RMK A01 T01610102  RH  069%=      5-min Rain = 0
KDMS 111350Z 22008KT 16/10 A3026 RMK A01 T01640101  RH  067%=      5-min Rain = 0
KDMS 111355Z 22009KT 17/10 A3026 RMK A01 T01660101  RH  067%=      5-min Rain = 0
KDMS 111400Z 22009KT 17/10 A3026 RMK A01 T01680102  RH  066%=      5-min Rain = 0
KDMS 111405Z 22009KT 17/10 A3026 RMK A01 T01710103  RH  065%=      5-min Rain = 0
KDMS 111410Z 22008KT 17/10 A3026 RMK A01 T01720104  RH  065%=      5-min Rain = 0
KDMS 111415Z 22009KT 18/10 A3026 RMK A01 T01750103  RH  064%=      5-min Rain = 0
KDMS 111420Z 22009KT 18/10 A3026 RMK A01 T01770104  RH  063%=      5-min Rain = 0
KDMS 111425Z 21009KT 18/11 A3026 RMK A01 T01780105  RH  063%=      5-min Rain = 0
KDMS 111430Z 22011KT 18/10 A3026 RMK A01 T01800103  RH  062%=      5-min Rain = 0
KDMS 111435Z 22011KT 18/10 A3026 RMK A01 T01820102  RH  061%=      5-min Rain = 0
KDMS 111440Z 22010KT 18/10 A3026 RMK A01 T01840103  RH  060%=      5-min Rain = 0
KDMS 111445Z 22011KT 19/10 A3027 RMK A01 T01870102  RH  059%=      5-min Rain = 0
KDMS 111450Z 22011KT 19/10 A3027 RMK A01 T01890103  RH  058%=      5-min Rain = 0
KDMS 111455Z 22010KT 19/10 A3027 RMK A01 T01910104  RH  058%=      5-min Rain = 0
KDMS 111500Z 22011KT 19/11 A3027 RMK A01 T01930105  RH  058%=      5-min Rain = 0
KDMS 111505Z 22010KT 20/11 A3027 RMK A01 T01950106  RH  057%=      5-min Rain = 0
KDMS 111510Z 22011KT 20/11 A3027 RMK A01 T01990108  RH  057%=      5-min Rain = 0
KDMS 111515Z 23011KT 20/11 A3027 RMK A01 T02000107  RH  056%=      5-min Rain = 0
KDMS 111520Z 22010KT 20/11 A3027 RMK A01 T02030110  RH  056%=      5-min Rain = 0
KDMS 111525Z 22011KT 20/11 A3027 RMK A01 T02030110  RH  056%=      5-min Rain = 0
KDMS 111530Z 23011KT 20/11 A3027 RMK A01 T02040112  RH  056%=      5-min Rain = 0
KDMS 111535Z 22011KT 21/11 A3027 RMK A01 T02070113  RH  056%=      5-min Rain = 0
KDMS 111540Z 22011KT 21/11 A3027 RMK A01 T02080113  RH  056%=      5-min Rain = 0
KDMS 111545Z 22011KT 21/12 A3027 RMK A01 T02100115  RH  056%=      5-min Rain = 0
KDMS 111550Z 22011KT 21/12 A3027 RMK A01 T02130117  RH  055%=      5-min Rain = 0
KDMS 111555Z 22010KT 21/12 A3026 RMK A01 T02130116  RH  055%=      5-min Rain = 0
KDMS 111600Z 22009KT 22/12 A3026 RMK A01 T02180119  RH  055%=      5-min Rain = 0
KDMS 111605Z 23009KT 22/12 A3026 RMK A01 T02200116  RH  053%=      5-min Rain = 0
KDMS 111610Z 23011KT 22/11 A3026 RMK A01 T02220114  RH  051%=      5-min Rain = 0
KDMS 111615Z 23011KT 22/11 A3026 RMK A01 T02230110  RH  050%=      5-min Rain = 0
KDMS 111620Z 23009KT 23/12 A3026 RMK A01 T02260116  RH  051%=      5-min Rain = 0
KDMS 111625Z 23009KT 23/12 A3026 RMK A01 T02300116  RH  050%=      5-min Rain = 0
KDMS 111630Z 24009KT 23/12 A3026 RMK A01 T02330116  RH  049%=      5-min Rain = 0
KDMS 111635Z 24011KT 23/11 A3026 RMK A01 T02330110  RH  047%=      5-min Rain = 0
KDMS 111640Z 23010KT 24/11 A3026 RMK A01 T02350111  RH  047%=      5-min Rain = 0
KDMS 111645Z 24009KT 24/11 A3026 RMK A01 T02370112  RH  046%=      5-min Rain = 0
KDMS 111650Z 24010KT 24/11 A3026 RMK A01 T02380111  RH  046%=      5-min Rain = 0
KDMS 111655Z 25010KT 24/11 A3026 RMK A01 T02390111  RH  045%=      5-min Rain = 0
KDMS 111700Z 24008KT 24/12 A3026 RMK A01 T02420115  RH  046%=      5-min Rain = 0
KDMS 111705Z 24009KT 24/11 A3026 RMK A01 T02430111  RH  044%=      5-min Rain = 0
KDMS 111710Z 23009G14KT 25/11 A3026 RMK A01 T02460114  RH  044%=      5-min Rain = 0
KDMS 111715Z 24009KT 25/12 A3026 RMK A01 T02490115  RH  044%=      5-min Rain = 0
KDMS 111720Z 24009KT 25/11 A3025 RMK A01 T02500113  RH  043%=      5-min Rain = 0
KDMS 111725Z 25007KT 25/12 A3025 RMK A01 T02500115  RH  044%=      5-min Rain = 0
KDMS 111730Z 25009KT 25/11 A3025 RMK A01 T02520112  RH  042%=      5-min Rain = 0
KDMS 111735Z 24008G13KT 26/12 A3025 RMK A01 T02550115  RH  042%=      5-min Rain = 0
KDMS 111740Z 26008KT 26/11 A3025 RMK A01 T02570114  RH  042%=      5-min Rain = 0
KDMS 111745Z 24008G13KT 26/11 A3024 RMK A01 T02570113  RH  041%=      5-min Rain = 0
KDMS 111750Z 24008KT 26/11 A3024 RMK A01 T02590112  RH  040%=      5-min Rain = 0
KDMS 111755Z 25007KT 26/11 A3024 RMK A01 T02590112  RH  041%=      5-min Rain = 0
KDMS 111800Z 25007KT 26/11 A3024 RMK A01 T02620112  RH  040%=      5-min Rain = 0
KDMS 111805Z 25007KT 26/11 A3024 RMK A01 T02630114  RH  040%=      5-min Rain = 0
KDMS 111810Z 31006G11KT 27/11 A3024 RMK A01 T02650108  RH  038%=      5-min Rain = 0
KDMS 111815Z 25005G10KT 27/12 A3024 RMK A01 T02680118  RH  040%=      5-min Rain = 0
KDMS 111820Z 25005KT 27/11 A3024 RMK A01 T02700110  RH  037%=      5-min Rain = 0
KDMS 111825Z 23004KT 27/11 A3024 RMK A01 T02680107  RH  037%=      5-min Rain = 0
KDMS 111830Z 22004KT 27/11 A3023 RMK A01 T02690109  RH  037%=      5-min Rain = 0
KDMS 111835Z 23004KT 27/11 A3023 RMK A01 T02730114  RH  038%=      5-min Rain = 0
KDMS 111840Z 22006KT 27/11 A3023 RMK A01 T02730112  RH  037%=      5-min Rain = 0
KDMS 111845Z 20004KT 27/11 A3023 RMK A01 T02730109  RH  037%=      5-min Rain = 0
KDMS 111850Z 25005KT 27/11 A3023 RMK A01 T02740108  RH  036%=      5-min Rain = 0
KDMS 111855Z 27004KT 28/11 A3023 RMK A01 T02750105  RH  035%=      5-min Rain = 0
KDMS 111900Z 25003KT 28/10 A3022 RMK A01 T02750103  RH  035%=      5-min Rain = 0
KDMS 111905Z 26003KT 28/10 A3022 RMK A01 T02780104  RH  034%=      5-min Rain = 0
KDMS 111910Z 28001KT 28/11 A3022 RMK A01 T02810105  RH  034%=      5-min Rain = 0
KDMS 111915Z 09001KT 29/11 A3022 RMK A01 T02860106  RH  033%=      5-min Rain = 0
KDMS 111920Z 17002KT 29/11 A3022 RMK A01 T02880108  RH  033%=      5-min Rain = 0
KDMS 111925Z 17003KT 29/11 A3021 RMK A01 T02880107  RH  033%=      5-min Rain = 0
KDMS 111930Z 14001KT 29/11 A3021 RMK A01 T02850105  RH  033%=      5-min Rain = 0
KDMS 111935Z 15004G9KT 29/11 A3021 RMK A01 T02890107  RH  033%=      5-min Rain = 0
KDMS 111940Z 16005KT 29/10 A3021 RMK A01 T02870103  RH  032%=      5-min Rain = 0
KDMS 111945Z 15006KT 28/10 A3021 RMK A01 T02840103  RH  033%=      5-min Rain = 0
KDMS 111950Z 16006KT 29/10 A302 RMK A01 T02860101  RH  032%=      5-min Rain = 0
KDMS 111955Z 18004KT 29/10 A302 RMK A01 T02860097  RH  031%=      5-min Rain = 0
KDMS 112000Z 17004KT 29/10 A302 RMK A01 T02860102  RH  032%=      5-min Rain = 0
KDMS 112005Z 14004KT 29/11 A302 RMK A01 T02880108  RH  033%=      5-min Rain = 0
KDMS 112010Z 16004KT 29/10 A3019 RMK A01 T02890100  RH  031%=      5-min Rain = 0
KDMS 112015Z 21003KT 29/10 A3019 RMK A01 T02880099  RH  031%=      5-min Rain = 0
KDMS 112020Z 14004KT 29/10 A3019 RMK A01 T02900101  RH  031%=      5-min Rain = 0
KDMS 112025Z 20004KT 29/10 A3019 RMK A01 T02900099  RH  031%=      5-min Rain = 0
KDMS 112030Z 18002KT 29/10 A3019 RMK A01 T02890098  RH  031%=      5-min Rain = 0
KDMS 112035Z 13002KT 29/10 A3018 RMK A01 T02910095  RH  030%=      5-min Rain = 0
KDMS 112040Z 16002KT 29/10 A3018 RMK A01 T02930100  RH  031%=      5-min Rain = 0
KDMS 112045Z 16003KT 30/11 A3018 RMK A01 T02950105  RH  031%=      5-min Rain = 0
KDMS 112050Z 09003KT 29/10 A3018 RMK A01 T02920101  RH  031%=      5-min Rain = 0
KDMS 112055Z 09003KT 29/10 A3018 RMK A01 T02890097  RH  031%=      5-min Rain = 0
KDMS 112100Z 10004KT 29/10 A3018 RMK A01 T02900101  RH  031%=      5-min Rain = 0
KDMS 112105Z 12003KT 29/10 A3017 RMK A01 T02910098  RH  031%=      5-min Rain = 0
KDMS 112110Z 21003KT 29/10 A3017 RMK A01 T02920098  RH  030%=      5-min Rain = 0
KDMS 112115Z 20004KT 29/11 A3017 RMK A01 T02930109  RH  032%=      5-min Rain = 0
KDMS 112120Z 19003KT 30/10 A3017 RMK A01 T02960104  RH  031%=      5-min Rain = 0
KDMS 112125Z 21005KT 30/11 A3016 RMK A01 T02950105  RH  031%=      5-min Rain = 0
KDMS 112130Z 19003KT 29/10 A3016 RMK A01 T02920100  RH  031%=      5-min Rain = 0
KDMS 112135Z 24004KT 29/10 A3016 RMK A01 T02930102  RH  031%=      5-min Rain = 0
KDMS 112140Z 25004KT 29/10 A3016 RMK A01 T02930099  RH  030%=      5-min Rain = 0
KDMS 112145Z 21003KT 29/10 A3016 RMK A01 T02940102  RH  031%=      5-min Rain = 0
KDMS 112150Z 21004KT 29/11 A3016 RMK A01 T02940105  RH  031%=      5-min Rain = 0
KDMS 112155Z 21003KT 29/10 A3016 RMK A01 T02930101  RH  031%=      5-min Rain = 0
KDMS 112200Z 18001KT 30/10 A3015 RMK A01 T02950102  RH  031%=      5-min Rain = 0
KDMS 112205Z 15001KT 30/10 A3015 RMK A01 T03020103  RH  030%=      5-min Rain = 0
KDMS 112210Z 15001KT 30/10 A3015 RMK A01 T03020101  RH  029%=      5-min Rain = 0
KDMS 112215Z 05001KT 30/10 A3015 RMK A01 T03040098  RH  028%=      5-min Rain = 0
KDMS 112220Z 32001KT 31/10 A3015 RMK A01 T03050100  RH  029%=      5-min Rain = 0
KDMS 112225Z 23002KT 31/11 A3015 RMK A01 T03070105  RH  029%=      5-min Rain = 0
KDMS 112230Z 23001KT 30/10 A3015 RMK A01 T03020097  RH  029%=      5-min Rain = 0
KDMS 112235Z 03002G7KT 30/11 A3015 RMK A01 T03000105  RH  030%=      5-min Rain = 0
KDMS 112240Z 21004KT 30/11 A3015 RMK A01 T02970105  RH  031%=      5-min Rain = 0
KDMS 112245Z 19005G10KT 29/11 A3015 RMK A01 T02940112  RH  033%=      5-min Rain = 0
KDMS 112250Z 15007KT 29/12 A3015 RMK A01 T02910115  RH  034%=      5-min Rain = 0
KDMS 112255Z 15006KT 29/11 A3015 RMK A01 T02900112  RH  034%=      5-min Rain = 0
KDMS 112300Z 17006KT 29/11 A3015 RMK A01 T02900114  RH  034%=      5-min Rain = 0
KDMS 112305Z 15006KT 29/11 A3015 RMK A01 T02890112  RH  034%=      5-min Rain = 0
KDMS 112310Z 17005KT 29/12 A3015 RMK A01 T02880115  RH  035%=      5-min Rain = 0
KDMS 112315Z 17006KT 29/12 A3015 RMK A01 T02880121  RH  036%=      5-min Rain = 0
KDMS 112320Z 17005KT 29/12 A3015 RMK A01 T02850115  RH  035%=      5-min Rain = 0
KDMS 112325Z 18006KT 29/11 A3015 RMK A01 T02850113  RH  035%=      5-min Rain = 0
KDMS 112330Z 18006KT 28/11 A3015 RMK A01 T02830114  RH  036%=      5-min Rain = 0
KDMS 112335Z 17005KT 28/11 A3015 RMK A01 T02820113  RH  036%=      5-min Rain = 0
KDMS 112340Z 20006KT 28/11 A3014 RMK A01 T02820111  RH  035%=      5-min Rain = 0
KDMS 112345Z 21004KT 28/12 A3014 RMK A01 T02810121  RH  038%=      5-min Rain = 0
KDMS 112350Z 18005KT 28/12 A3014 RMK A01 T02790122  RH  038%=      5-min Rain = 0
KDMS 112355Z 16005KT 28/13 A3014 RMK A01 T02770126  RH  040%=      5-min Rain = 0
KDMS 120000Z 17005KT 27/13 A3014 RMK A01 T02740129  RH  042%=      5-min Rain = 0
KDMS 120005Z 17005KT 27/14 A3014 RMK A01 T02700135  RH  044%=      5-min Rain = 0
KDMS 120010Z 16006KT 27/12 A3014 RMK A01 T02690123  RH  041%=      5-min Rain = 0
KDMS 120015Z 16005KT 27/12 A3014 RMK A01 T02670123  RH  042%=      5-min Rain = 0
KDMS 120020Z 16004KT 26/12 A3014 RMK A01 T02640124  RH  043%=      5-min Rain = 0
KDMS 120025Z 16006KT 26/13 A3014 RMK A01 T02610128  RH  045%=      5-min Rain = 0
KDMS 120030Z 16006KT 26/13 A3014 RMK A01 T02550130  RH  047%=      5-min Rain = 0
KDMS 120035Z 16006KT 25/13 A3014 RMK A01 T02500128  RH  048%=      5-min Rain = 0
KDMS 120040Z 16005KT 25/13 A3014 RMK A01 T02460127  RH  048%=      5-min Rain = 0
KDMS 120045Z 16005KT 24/13 A3014 RMK A01 T02430126  RH  049%=      5-min Rain = 0
KDMS 120050Z 15005KT 24/13 A3015 RMK A01 T02400126  RH  050%=      5-min Rain = 0
KDMS 120055Z 15005KT 24/13 A3014 RMK A01 T02380125  RH  050%=      5-min Rain = 0
KDMS 120100Z 16005KT 24/12 A3014 RMK A01 T02370123  RH  050%=      5-min Rain = 0
KDMS 120105Z 16005KT 24/13 A3014 RMK A01 T02350125  RH  051%=      5-min Rain = 0
KDMS 120110Z 16005KT 23/13 A3014 RMK A01 T02300127  RH  053%=      5-min Rain = 0
KDMS 120115Z 17005KT 23/12 A3014 RMK A01 T02290122  RH  052%=      5-min Rain = 0
KDMS 120120Z 17005KT 23/12 A3014 RMK A01 T02280123  RH  052%=      5-min Rain = 0
KDMS 120125Z 17004KT 23/12 A3014 RMK A01 T02250121  RH  053%=      5-min Rain = 0
KDMS 120130Z 17005KT 22/12 A3015 RMK A01 T02230119  RH  053%=      5-min Rain = 0
KDMS 120135Z 17006KT 22/12 A3015 RMK A01 T02220121  RH  054%=      5-min Rain = 0
KDMS 120140Z 17005KT 22/12 A3015 RMK A01 T02200123  RH  055%=      5-min Rain = 0
KDMS 120145Z 17005KT 22/12 A3015 RMK A01 T02170121  RH  056%=      5-min Rain = 0
KDMS 120150Z 17005KT 22/12 A3015 RMK A01 T02160119  RH  055%=      5-min Rain = 0
KDMS 120155Z 17004KT 22/12 A3015 RMK A01 T02170119  RH  055%=      5-min Rain = 0
KDMS 120200Z 17005KT 22/12 A3015 RMK A01 T02160120  RH  055%=      5-min Rain = 0
KDMS 120205Z 17005KT 22/12 A3015 RMK A01 T02150119  RH  055%=      5-min Rain = 0
KDMS 120210Z 17006KT 21/12 A3015 RMK A01 T02140120  RH  056%=      5-min Rain = 0
KDMS 120215Z 17006KT 21/12 A3015 RMK A01 T02100123  RH  059%=      5-min Rain = 0
KDMS 120220Z 17006KT 20/13 A3016 RMK A01 T02040126  RH  062%=      5-min Rain = 0
KDMS 120225Z 17007KT 20/13 A3016 RMK A01 T01990126  RH  064%=      5-min Rain = 0
KDMS 120230Z 17007KT 20/13 A3016 RMK A01 T01950125  RH  065%=      5-min Rain = 0
KDMS 120235Z 17006KT 19/12 A3016 RMK A01 T01930124  RH  065%=      5-min Rain = 0
KDMS 120240Z 17006KT 19/12 A3016 RMK A01 T01940124  RH  065%=      5-min Rain = 0
KDMS 120245Z 17006KT 20/12 A3016 RMK A01 T01960124  RH  064%=      5-min Rain = 0
KDMS 120250Z 17006KT 20/13 A3016 RMK A01 T01970125  RH  064%=      5-min Rain = 0
KDMS 120255Z 17006KT 20/13 A3016 RMK A01 T01950125  RH  065%=      5-min Rain = 0
KDMS 120300Z 17007KT 20/12 A3016 RMK A01 T01950124  RH  065%=      5-min Rain = 0
KDMS 120305Z 17006KT 19/13 A3017 RMK A01 T01940126  RH  066%=      5-min Rain = 0
KDMS 120310Z 17006KT 19/13 A3017 RMK A01 T01910126  RH  067%=      5-min Rain = 0
KDMS 120315Z 17007KT 19/13 A3017 RMK A01 T01890125  RH  068%=      5-min Rain = 0
KDMS 120320Z 17007KT 19/13 A3017 RMK A01 T01870125  RH  068%=      5-min Rain = 0
KDMS 120325Z 18008KT 18/13 A3017 RMK A01 T01840125  RH  070%=      5-min Rain = 0
KDMS 120330Z 18009KT 19/12 A3017 RMK A01 T01870124  RH  068%=      5-min Rain = 0
KDMS 120335Z 18008KT 19/12 A3017 RMK A01 T01920123  RH  066%=      5-min Rain = 0
KDMS 120340Z 18007KT 19/12 A3017 RMK A01 T01920123  RH  066%=      5-min Rain = 0
KDMS 120345Z 18006KT 19/12 A3017 RMK A01 T01910122  RH  065%=      5-min Rain = 0
KDMS 120350Z 18006KT 19/12 A3017 RMK A01 T01910122  RH  065%=      5-min Rain = 0
KDMS 120355Z 18006KT 19/12 A3017 RMK A01 T01900122  RH  066%=      5-min Rain = 0
KDMS 120400Z 18005KT 19/12 A3017 RMK A01 T01900121  RH  065%=      5-min Rain = 0
KDMS 120405Z 19004KT 19/12 A3017 RMK A01 T01940122  RH  064%=      5-min Rain = 0
KDMS 120410Z 19004KT 20/12 A3017 RMK A01 T01970123  RH  064%=      5-min Rain = 0
KDMS 120415Z 19005KT 20/12 A3017 RMK A01 T01960121  RH  063%=      5-min Rain = 0
KDMS 120420Z 19004KT 20/12 A3017 RMK A01 T01970118  RH  062%=      5-min Rain = 0
KDMS 120425Z 18003KT 20/12 A3017 RMK A01 T01970118  RH  061%=      5-min Rain = 0
KDMS 120430Z 18003KT 20/12 A3017 RMK A01 T01970118  RH  061%=      5-min Rain = 0
KDMS 120435Z 12005KT 19/12 A3018 RMK A01 T01890120  RH  065%=      5-min Rain = 0
KDMS 120440Z 12006KT 18/12 A3018 RMK A01 T01810120  RH  069%=      5-min Rain = 0
KDMS 120445Z 15006KT 18/12 A3018 RMK A01 T01760120  RH  071%=      5-min Rain = 0
KDMS 120450Z 14007KT 17/12 A3018 RMK A01 T01710120  RH  073%=      5-min Rain = 0
KDMS 120455Z 15007KT 17/12 A3018 RMK A01 T01710120  RH  073%=      5-min Rain = 0

Page generated in 0.0477 seconds.